Time;durP1;ratioP1;P1;durP2;ratioP2;P2;SDS_P1;SDS_P2;PMS_P1;PMS_P2;Temp;Humidity;BMP_temperature;BMP_pressure;BME280_temperature;BME280_humidity;BME280_pressure;Samples;Min_cycle;Max_cycle;Signal;HPM_P1;HPM_P2
2023/07/05 00:01:23;;;;;;;;;;;;;;;24.11;100.00;99422.00;5072131;28;19925;-77
2023/07/05 00:03:49;;;;;;;;;;;;;;;24.12;100.00;99417.44;5071952;28;19927;-77
2023/07/05 00:06:14;;;;;;;;;;;;;;;24.09;100.00;99419.53;5070354;28;19920;-77
2023/07/05 00:08:40;;;;;;;;;;;;;;;24.07;100.00;99416.28;5072335;28;19923;-77
2023/07/05 00:11:06;;;;;;;;;;;;;;;24.04;100.00;99413.19;5068379;28;19921;-76
2023/07/05 00:13:32;;;;;;;;;;;;;;;24.00;100.00;99410.16;5070804;28;20001;-74
2023/07/05 00:15:59;;;;;;;;;;;;;;;23.95;100.00;99418.13;5075133;28;20329;-77
2023/07/05 00:18:25;;;;;;;;;;;;;;;23.83;100.00;99413.78;5074085;28;20272;-77
2023/07/05 00:20:50;;;;;;;;;;;;;;;23.76;100.00;99405.78;5067367;28;20374;-77
2023/07/05 00:23:15;;;;;;;;;;;;;;;23.72;100.00;99407.31;5073300;28;19962;-78
2023/07/05 00:25:41;;;;;;;;;;;;;;;23.68;100.00;99403.41;5072766;28;19921;-78
2023/07/05 00:28:06;;;;;;;;;;;;;;;23.62;100.00;99401.69;5073250;28;19926;-76
2023/07/05 00:30:32;;;;;;;;;;;;;;;23.50;100.00;99404.31;5072969;28;19920;-77
2023/07/05 00:32:57;;;;;;;;;;;;;;;23.48;100.00;99400.22;5072973;28;19963;-77
2023/07/05 00:35:23;;;;;;;;;;;;;;;23.49;100.00;99393.78;5072246;28;20430;-75
2023/07/05 00:37:48;;;;;;;;;;;;;;;23.41;100.00;99404.84;5072842;28;19924;-78
2023/07/05 00:40:13;;;;;;;;;;;;;;;23.39;100.00;99398.84;5071041;28;20018;-77
2023/07/05 00:42:39;;;;;;;;;;;;;;;23.40;100.00;99400.50;5072255;28;19952;-77
2023/07/05 00:45:11;;;;;;;;;;;;;;;23.41;100.00;99399.47;5072077;28;19974;-74
2023/07/05 00:47:38;;;;;;;;;;;;;;;23.36;100.00;99402.03;5072379;28;19983;-76
2023/07/05 00:50:13;;;;;;;;;;;;;;;23.30;100.00;99400.25;5072545;28;20287;-76
2023/07/05 00:52:39;;;;;;;;;;;;;;;23.30;100.00;99403.75;5072355;28;19943;-76
2023/07/05 00:55:05;;;;;;;;;;;;;;;23.21;100.00;99400.56;5072567;28;19920;-75
2023/07/05 00:57:33;;;;;;;;;;;;;;;23.19;100.00;99404.53;5068776;28;19920;-76
2023/07/05 01:00:02;;;;;;;;;;;;;;;23.09;100.00;99396.19;5070286;28;20002;-75
2023/07/05 01:02:29;;;;;;;;;;;;;;;23.00;100.00;99387.59;5068440;28;19929;-76
2023/07/05 01:04:54;;;;;;;;;;;;;;;22.99;100.00;99395.91;5071324;28;19963;-76
2023/07/05 01:07:20;;;;;;;;;;;;;;;22.97;100.00;99401.53;5071941;28;19968;-76
2023/07/05 01:09:46;;;;;;;;;;;;;;;22.88;100.00;99413.63;5072248;28;20333;-76
2023/07/05 01:12:11;;;;;;;;;;;;;;;22.81;100.00;99415.56;5067277;28;20034;-75
2023/07/05 01:14:44;;;;;;;;;;;;;;;22.82;100.00;99422.59;5071346;28;19951;-74
2023/07/05 01:17:22;;;;;;;;;;;;;;;22.75;100.00;99422.66;5072220;28;19916;-75
2023/07/05 01:19:47;;;;;;;;;;;;;;;22.73;100.00;99418.59;5070597;28;20298;-76
2023/07/05 01:22:22;;;;;;;;;;;;;;;22.68;100.00;99419.19;5071754;28;19980;-75
2023/07/05 01:25:01;;;;;;;;;;;;;;;22.64;100.00;99414.50;5072178;28;19936;-76
2023/07/05 01:27:32;;;;;;;;;;;;;;;22.57;100.00;99419.13;5068116;28;19921;-76
2023/07/05 01:29:59;;;;;;;;;;;;;;;22.54;100.00;99414.22;5071890;28;19924;-75
2023/07/05 01:32:24;;;;;;;;;;;;;;;22.48;100.00;99409.72;5071511;28;20425;-75
2023/07/05 01:34:55;;;;;;;;;;;;;;;22.51;100.00;99420.00;5071783;28;19928;-76
2023/07/05 01:37:47;;;;;;;;;;;;;;;22.48;100.00;99417.78;5070592;28;19967;-77
2023/07/05 01:40:14;;;;;;;;;;;;;;;22.48;100.00;99431.22;5078767;28;20389;-77
2023/07/05 01:42:41;;;;;;;;;;;;;;;22.52;100.00;99424.34;5071468;28;20574;-77
2023/07/05 01:45:07;;;;;;;;;;;;;;;22.51;100.00;99430.75;5071323;28;20407;-77
2023/07/05 01:47:35;;;;;;;;;;;;;;;22.46;100.00;99429.56;5065703;28;20015;-78
2023/07/05 01:50:13;;;;;;;;;;;;;;;22.40;100.00;99425.09;5071129;28;20063;-77
2023/07/05 01:52:41;;;;;;;;;;;;;;;22.33;100.00;99420.81;5071540;28;19928;-76
2023/07/05 01:55:12;;;;;;;;;;;;;;;22.15;100.00;99431.56;5071529;28;19920;-76
2023/07/05 01:57:40;;;;;;;;;;;;;;;22.11;100.00;99425.78;5071686;28;19989;-77
2023/07/05 02:00:08;;;;;;;;;;;;;;;22.16;100.00;99428.63;5066502;28;20019;-78
2023/07/05 02:02:39;;;;;;;;;;;;;;;22.17;100.00;99424.91;5071506;28;19956;-78
2023/07/05 02:05:07;;;;;;;;;;;;;;;21.99;100.00;99432.91;5071350;28;19927;-77
2023/07/05 02:07:32;;;;;;;;;;;;;;;21.95;100.00;99431.72;5071031;28;19955;-76
2023/07/05 02:09:59;;;;;;;7.82;5.55;;;;;;;21.92;100.00;99432.09;5069668;28;19963;-78
2023/07/05 02:12:26;;;;;;;6.95;5.20;;;;;;;21.93;100.00;99429.22;5070479;28;20032;-77
2023/07/05 02:14:52;;;;;;;9.68;6.32;;;;;;;21.89;100.00;99427.19;5066725;28;20081;-78
2023/07/05 02:17:19;;;;;;;10.73;6.10;;;;;;;21.92;100.00;99432.94;5069240;28;20020;-76
2023/07/05 02:19:45;;;;;;;11.05;5.30;;;;;;;21.93;100.00;99433.75;5067951;28;20039;-77
2023/07/05 02:22:10;;;;;;;;;;;;;;;21.93;100.00;99439.13;5071344;28;19916;-77
2023/07/05 02:24:36;;;;;;;;;;;;;;;21.92;100.00;99441.00;5071345;28;19920;-77
2023/07/05 02:27:01;;;;;;;;;;;;;;;21.91;100.00;99446.59;5071698;28;20011;-75
2023/07/05 02:29:30;;;;;;;;;;;;;;;21.96;100.00;99454.84;5070495;28;19913;-77
2023/07/05 02:31:56;;;;;;;;;;;;;;;21.98;100.00;99444.69;5071568;28;20375;-77
2023/07/05 02:34:21;;;;;;;;;;;;;;;21.96;100.00;99438.75;5067061;28;20350;-77
2023/07/05 02:36:47;;;;;;;;;;;;;;;21.96;100.00;99450.31;5071287;28;19943;-75
2023/07/05 02:39:13;;;;;;;;;;;;;;;21.86;100.00;99451.78;5070127;28;19923;-75
2023/07/05 02:41:39;;;;;;;;;;;;;;;21.85;100.00;99452.84;5070661;28;20003;-77
2023/07/05 02:44:04;;;;;;;;;;;;;;;21.81;100.00;99457.00;5070941;28;20311;-78
2023/07/05 02:46:31;;;;;;;;;;;;;;;21.75;100.00;99464.06;5065354;28;19923;-77
2023/07/05 02:48:57;;;;;;;;;;;;;;;21.68;100.00;99467.84;5069885;28;19912;-77
2023/07/05 02:51:24;;;;;;;;;;;;;;;21.64;100.00;99462.06;5070482;28;20380;-77
2023/07/05 02:53:49;;;;;;;;;;;;;;;21.68;100.00;99465.16;5070845;28;20008;-77
2023/07/05 02:56:15;;;;;;;;;;;;;;;21.54;100.00;99467.91;5069581;28;19917;-77
2023/07/05 02:58:41;;;;;;;;;;;;;;;21.58;100.00;99468.28;5070362;28;20015;-77
2023/07/05 03:01:07;;;;;;;;;;;;;;;21.60;100.00;99468.91;5070607;28;19916;-77
2023/07/05 03:03:33;;;;;;;;;;;;;;;21.58;100.00;99473.66;5070212;28;19969;-77
2023/07/05 03:05:59;;;;;;;;;;;;;;;21.58;100.00;99469.13;5065161;28;19926;-78
2023/07/05 03:08:25;;;;;;;;;;;;;;;21.56;100.00;99471.19;5081465;28;19917;-77
2023/07/05 03:10:52;;;;;;;;;;;;;;;21.58;100.00;99479.88;5070272;28;19916;-77
2023/07/05 03:13:18;;;;;;;;;;;;;;;21.49;100.00;99475.78;5069218;28;19951;-77
2023/07/05 03:15:44;;;;;;;;;;;;;;;21.35;100.00;99474.22;5070303;28;19916;-76
2023/07/05 03:18:09;;;;;;;;;;;;;;;21.40;100.00;99466.31;5070841;28;20010;-77
2023/07/05 03:20:34;;;;;;;;;;;;;;;21.42;100.00;99475.00;5070082;28;20030;-77
2023/07/05 03:23:00;;;;;;;;;;;;;;;21.43;100.00;99476.66;5070604;28;19916;-78
2023/07/05 03:25:25;;;;;;;;;;;;;;;21.45;100.00;99479.94;5065189;28;19916;-78
2023/07/05 03:27:51;;;;;;;;;;;;;;;21.45;100.00;99481.78;5068332;28;19916;-77
2023/07/05 03:30:16;;;;;;;;;;;;;;;21.51;100.00;99472.88;5069137;28;19932;-77
2023/07/05 03:32:43;;;;;;;;;;;;;;;21.55;100.00;99474.94;5063615;28;19955;-78
2023/07/05 03:35:09;;;;;;;;;;;;;;;21.58;100.00;99474.50;5069551;28;20344;-78
2023/07/05 03:37:34;;;;;;;;;;;;;;;21.57;100.00;99478.22;5069229;28;19923;-78
2023/07/05 03:40:03;;;;;;;;;;;;;;;21.53;100.00;99487.75;5068013;28;20011;-78
2023/07/05 03:42:29;;;;;;;;;;;;;;;21.56;100.00;99497.22;5069203;28;19939;-77
2023/07/05 03:44:55;;;;;;;;;;;;;;;21.57;100.00;99494.31;5069512;28;19916;-78
2023/07/05 03:47:20;;;;;;;;;;;;;;;21.55;100.00;99488.38;5069840;28;19916;-78
2023/07/05 03:49:45;;;;;;;;;;;;;;;21.54;100.00;99494.75;5072640;28;20317;-78
2023/07/05 03:52:12;;;;;;;;;;;;;;;21.53;100.00;99493.13;5075232;28;20342;-77
2023/07/05 03:54:37;;;;;;;;;;;;;;;21.57;100.00;99504.22;5074057;28;19924;-78
2023/07/05 03:57:03;;;;;;;;;;;;;;;21.54;100.00;99505.50;5074145;28;19916;-78
2023/07/05 03:59:28;;;;;;;;;;;;;;;21.55;100.00;99506.34;5073848;28;19947;-77
2023/07/05 04:01:55;;;;;;;;;;;;;;;21.57;100.00;99507.75;5073776;28;20349;-77
2023/07/05 04:04:20;;;;;;;;;;;;;;;21.58;100.00;99512.09;5073360;28;19916;-78
2023/07/05 04:06:46;;;;;;;;;;;;;;;21.47;100.00;99504.72;5073359;28;19916;-76
2023/07/05 04:09:11;;;;;;;;;;;;;;;21.37;100.00;99498.97;5073080;28;19916;-79
2023/07/05 04:11:37;;;;;;;;;;;;;;;21.44;100.00;99510.50;5073291;28;19916;-79
2023/07/05 04:14:02;;;;;;;;;;;;;;;21.35;100.00;99506.41;5072890;28;20241;-77
2023/07/05 04:16:28;;;;;;;;;;;;;;;21.35;100.00;99511.78;5069658;28;20296;-77
2023/07/05 04:18:54;;;;;;;;;;;;;;;21.39;100.00;99507.63;5074001;28;19920;-78
2023/07/05 04:21:20;;;;;;;;;;;;;;;21.36;100.00;99513.44;5072806;28;20058;-77
2023/07/05 04:23:45;;;;;;;;;;;;;;;21.23;100.00;99513.47;5073089;28;19916;-78
2023/07/05 04:26:12;;;;;;;;;;;;;;;21.09;100.00;99511.84;5072794;28;19939;-77
2023/07/05 04:28:38;;;;;;;;;;;;;;;21.14;100.00;99522.78;5072370;28;20057;-77
2023/07/05 04:31:04;;;;;;;;;;;;;;;21.16;100.00;99520.72;5072687;28;19959;-75
2023/07/05 04:33:29;;;;;;;;;;;;;;;21.14;100.00;99520.09;5072307;28;19916;-78
2023/07/05 04:35:56;;;;;;;;;;;;;;;21.08;100.00;99521.78;5072557;28;20007;-77
2023/07/05 04:38:22;;;;;;;;;;;;;;;21.10;100.00;99525.06;5062151;28;19966;-77
2023/07/05 04:40:47;;;;;;;;;;;;;;;21.13;100.00;99523.81;5078321;28;19921;-78
2023/07/05 04:43:13;;;;;;;;;;;;;;;21.14;100.00;99520.09;5072117;28;20257;-77
2023/07/05 04:45:38;;;;;;;;;;;;;;;21.15;100.00;99527.13;5071913;28;20334;-77
2023/07/05 04:48:04;;;;;;;;;;;;;;;21.19;100.00;99518.47;5066857;28;19959;-78
2023/07/05 04:50:29;;;;;;;;;;;;;;;21.26;100.00;99528.34;5072187;28;19912;-77
2023/07/05 04:52:55;;;;;;;;;;;;;;;21.28;100.00;99537.81;5068496;28;20014;-77
2023/07/05 04:55:20;;;;;;;;;;;;;;;21.29;100.00;99533.28;5072137;28;19966;-76
2023/07/05 04:57:46;;;;;;;;;;;;;;;21.33;100.00;99535.31;5068756;28;19924;-76
2023/07/05 05:00:12;;;;;;;;;;;;;;;21.24;100.00;99536.59;5083369;22;19932;-81
2023/07/05 05:02:37;;;;;;;;;;;;;;;21.22;100.00;99527.94;5072379;28;19917;-79
2023/07/05 05:05:03;;;;;;;;;;;;;;;21.25;100.00;99527.53;5072239;28;20002;-80
2023/07/05 05:07:28;;;;;;;;;;;;;;;21.31;100.00;99537.41;5063946;28;19916;-82
2023/07/05 05:09:55;;;;;;;;;;;;;;;21.41;100.00;99532.41;5069061;28;19961;-78
2023/07/05 05:12:20;;;;;;;;;;;;;;;21.51;100.00;99543.50;5066337;28;19942;-85
2023/07/05 05:14:45;;;;;;;;;;;;;;;21.62;100.00;99548.19;4711073;28;9999963;-80
2023/07/05 05:17:11;;;;;;;;;;;;;;;21.64;100.00;99548.81;5064622;28;20288;-80
2023/07/05 05:19:36;;;;;;;;;;;;;;;21.69;100.00;99550.03;5065933;28;20007;-81
2023/07/05 05:22:01;;;;;;;;;;;;;;;21.76;100.00;99545.44;5065651;28;20066;-81
2023/07/05 05:24:27;;;;;;;;;;;;;;;21.60;100.00;99547.59;5068646;28;20399;-80
2023/07/05 05:26:54;;;;;;;;;;;;;;;21.60;100.00;99558.34;5069223;28;19959;-81
2023/07/05 05:29:19;;;;;;;;;;;;;;;21.62;100.00;99548.19;5062634;28;19920;-80
2023/07/05 05:31:44;;;;;;;;;;;;;;;21.61;100.00;99559.19;5064895;28;19934;-80
2023/07/05 05:34:10;;;;;;;;;;;;;;;21.34;100.00;99557.63;5063867;28;20008;-81
2023/07/05 05:36:35;;;;;;;;;;;;;;;21.39;100.00;99555.94;5063892;28;19920;-82
2023/07/05 05:39:01;;;;;;;;;;;;;;;21.38;100.00;99559.69;5068166;28;19916;-78
2023/07/05 05:41:26;;;;;;;;;;;;;;;21.21;100.00;99569.22;5066104;28;19927;-80
2023/07/05 05:43:51;;;;;;;;;;;;;;;21.22;100.00;99570.88;5066698;28;19924;-79
2023/07/05 05:46:17;;;;;;;;;;;;;;;21.28;100.00;99563.84;5066297;28;19985;-82
2023/07/05 05:48:42;;;;;;;;;;;;;;;21.32;100.00;99571.28;5066216;28;19916;-81
2023/07/05 05:51:08;;;;;;;;;;;;;;;21.36;100.00;99571.66;4718416;28;10000524;-82
2023/07/05 05:53:33;;;;;;;;;;;;;;;21.40;100.00;99562.97;5071084;28;20823;-77
2023/07/05 05:55:59;;;;;;;;;;;;;;;21.43;100.00;99567.09;5069241;28;20268;-76
2023/07/05 05:58:24;;;;;;;;;;;;;;;21.58;100.00;99570.31;5062550;28;19967;-76
2023/07/05 06:00:49;;;;;;;;;;;;;;;21.69;100.00;99569.66;5070419;28;19916;-76
2023/07/05 06:03:15;;;;;;;;;;;;;;;21.73;100.00;99570.06;5070510;28;19916;-76
2023/07/05 06:05:41;;;;;;;;;;;;;;;21.77;100.00;99568.59;5070640;28;19969;-77
2023/07/05 06:08:06;;;;;;;;;;;;;;;21.85;100.00;99571.03;5070919;28;20019;-77
2023/07/05 06:10:32;;;;;;;;;;;;;;;21.94;100.00;99575.94;5069454;28;19966;-77
2023/07/05 06:12:57;;;;;;;;;;;;;;;22.04;100.00;99562.03;5067462;28;19920;-77
2023/07/05 06:15:22;;;;;;;;;;;;;;;22.13;100.00;99568.81;5068243;28;20387;-77
2023/07/05 06:17:48;;;;;;;;;;;;;;;22.22;100.00;99570.19;5070051;28;19924;-77
2023/07/05 06:20:16;;;;;;;;;;;;;;;22.32;100.00;99567.88;5068456;28;19920;-77
2023/07/05 06:22:42;;;;;;;;;;;;;;;22.37;100.00;99568.03;5064312;28;20420;-77
2023/07/05 06:25:10;;;;;;;;;;;;;;;22.39;100.00;99579.38;5069704;28;20003;-77
2023/07/05 06:27:35;;;;;;;;;;;;;;;22.46;100.00;99584.69;5069383;28;19916;-77
2023/07/05 06:30:00;;;;;;;;;;;;;;;22.53;100.00;99585.47;5069548;28;19924;-77
2023/07/05 06:32:26;;;;;;;;;;;;;;;22.58;100.00;99587.50;5069211;28;19922;-78
2023/07/05 06:34:51;;;;;;;;;;;;;;;22.65;100.00;99585.59;5069356;28;19959;-76
2023/07/05 06:37:16;;;;;;;;;;;;;;;22.70;100.00;99580.38;5069002;28;19970;-77
2023/07/05 06:39:42;;;;;;;;;;;;;;;22.78;100.00;99577.44;5065557;28;19956;-77
2023/07/05 06:42:08;;;;;;;;;;;;;;;22.83;100.00;99582.97;5069285;28;20283;-77
2023/07/05 06:44:34;;;;;;;;;;;;;;;22.93;100.00;99583.28;5063056;28;19935;-76
2023/07/05 06:46:59;;;;;;;;;;;;;;;22.92;100.00;99583.50;5067933;28;19920;-78
2023/07/05 06:49:24;;;;;;;;;;;;;;;22.99;100.00;99579.72;5068711;28;20279;-78
2023/07/05 06:51:50;;;;;;;;;;;;;;;23.02;100.00;99584.66;5069124;28;20007;-77
2023/07/05 06:54:15;;;;;;;;;;;;;;;23.08;100.00;99583.78;5068928;28;19965;-77
2023/07/05 06:56:40;;;;;;;;;;;;;;;23.11;100.00;99588.69;5068972;28;19989;-77
2023/07/05 06:59:06;;;;;;;;;;;;;;;23.14;100.00;99588.28;5068700;28;19964;-77
2023/07/05 07:01:31;;;;;;;;;;;;;;;23.16;100.00;99591.53;5068572;28;19924;-77
2023/07/05 07:03:57;;;;;;;;;;;;;;;23.18;100.00;99594.84;5068797;28;19916;-75
2023/07/05 07:06:22;;;;;;;;;;;;;;;23.23;100.00;99591.47;5065475;28;19916;-77
2023/07/05 07:08:47;;;;;;;;;;;;;;;23.25;100.00;99589.41;5068692;28;19931;-77
2023/07/05 07:11:13;;;;;;;;;;;;;;;23.30;100.00;99597.63;5068413;28;19995;-77
2023/07/05 07:13:39;;;;;;;;;;;;;;;23.34;100.00;99589.91;5067497;28;19959;-77
2023/07/05 07:16:04;;;;;;;;;;;;;;;23.37;100.00;99592.97;5068045;28;19916;-76
2023/07/05 07:18:29;;;;;;;;;;;;;;;23.40;100.00;99587.13;5068644;28;20292;-75
2023/07/05 07:20:55;;;;;;;;;;;;;;;23.40;100.00;99584.44;5069243;28;20350;-77
2023/07/05 07:23:21;;;;;;;;;;;;;;;23.41;100.00;99587.97;5068692;28;19916;-77
2023/07/05 07:25:46;;;;;;;;;;;;;;;23.44;100.00;99579.44;5068948;28;20356;-77
2023/07/05 07:28:12;;;;;;;;;;;;;;;23.49;100.00;99583.13;5069109;28;19916;-77
2023/07/05 07:30:37;;;;;;;;;;;;;;;23.55;100.00;99574.16;5063135;28;20011;-77
2023/07/05 07:33:02;;;;;;;;;;;;;;;23.63;100.00;99575.69;5069163;28;19928;-77
2023/07/05 07:35:28;;;;;;;;;;;;;;;23.70;100.00;99581.81;5064280;28;19924;-77
2023/07/05 07:37:53;;;;;;;;;;;;;;;23.76;100.00;99583.63;5068497;28;20367;-77
2023/07/05 07:40:18;;;;;;;;;;;;;;;23.76;100.00;99586.31;5068593;28;19969;-77
2023/07/05 07:42:44;;;;;;;;;;;;;;;23.75;100.00;99595.44;5068834;28;19939;-77
2023/07/05 07:45:09;;;;;;;;;;;;;;;23.65;100.00;99585.22;5066368;28;20335;-77
2023/07/05 07:47:34;;;;;;;;;;;;;;;23.63;100.00;99586.47;5065954;28;19961;-77
2023/07/05 07:50:00;;;;;;;;;;;;;;;23.73;100.00;99583.25;5068371;28;19917;-77
2023/07/05 07:52:25;;;;;;;;;;;;;;;23.81;100.00;99580.22;5068712;28;19963;-78
2023/07/05 07:54:53;;;;;;;;;;;;;;;23.85;100.00;99573.34;5068653;28;20524;-77
2023/07/05 07:57:18;;;;;;;;;;;;;;;23.92;100.00;99574.88;5068570;28;20021;-77
2023/07/05 07:59:45;;;;;;;;;;;;;;;23.94;100.00;99578.19;5067911;28;19990;-78
2023/07/05 08:02:14;;;;;;;;;;;;;;;23.82;100.00;99580.00;5068594;28;19985;-77
2023/07/05 08:04:42;;;;;;;;;;;;;;;23.79;100.00;99588.56;5068370;28;19921;-77
2023/07/05 08:07:07;;;;;;;;;;;;;;;23.72;100.00;99579.75;5068693;28;20007;-76
2023/07/05 08:09:33;;;;;;;;;;;;;;;23.85;100.00;99589.53;5068167;28;20019;-78
2023/07/05 08:11:58;;;;;;;;;;;;;;;23.93;100.00;99587.31;5068429;28;19916;-77
2023/07/05 08:14:23;;;;;;;;;;;;;;;24.01;100.00;99584.31;5066955;28;20344;-79
2023/07/05 08:16:49;;;;;;;;;;;;;;;24.00;100.00;99588.06;5066870;28;20330;-77
2023/07/05 08:19:15;;;;;;;;;;;;;;;24.03;100.00;99582.19;5062456;28;19924;-77
2023/07/05 08:21:42;;;;;;;;;;;;;;;24.07;100.00;99583.41;5068414;28;20475;-77
2023/07/05 08:24:07;;;;;;;;;;;;;;;24.08;100.00;99574.25;5068238;28;20042;-77
2023/07/05 08:26:33;;;;;;;;;;;;;;;24.13;100.00;99580.84;5068041;28;20024;-76
2023/07/05 08:28:59;;;;;;;;;;;;;;;24.17;100.00;99584.69;5066373;28;20288;-75
2023/07/05 08:31:24;;;;;;;;;;;;;;;24.23;100.00;99581.13;5067749;28;19916;-76
2023/07/05 08:33:49;;;;;;;;;;;;;;;24.29;100.00;99580.19;5067946;28;19955;-75
2023/07/05 08:36:15;;;;;;;;;;;;;;;24.35;100.00;99573.88;5071303;28;20394;-78
2023/07/05 08:38:42;;;;;;;;;;;;;;;24.44;100.00;99572.50;5049718;28;19981;-78
2023/07/05 08:41:13;;;;;;;;;;;;;;;24.42;100.00;99574.59;5071835;28;19946;-77
2023/07/05 08:43:52;;;;;;;;;;;;;;;24.50;100.00;99574.28;5071357;28;19987;-77
2023/07/05 08:46:18;;;;;;;;;;;;;;;24.55;100.00;99577.09;5071071;28;20023;-78
2023/07/05 08:48:45;;;;;;;;;;;;;;;24.54;100.00;99571.94;5071207;28;20015;-78
2023/07/05 08:51:12;;;;;;;;;;;;;;;24.60;100.00;99571.00;5071605;28;19916;-78
2023/07/05 08:53:47;;;;;;;;;;;;;;;24.66;100.00;99576.28;5071127;28;19920;-76
2023/07/05 08:56:17;;;;;;;;;;;;;;;24.73;100.00;99571.59;5065817;28;20016;-77
2023/07/05 08:58:56;;;;;;;;;;;;;;;24.75;100.00;99566.78;5071379;28;19916;-77
2023/07/05 09:01:26;;;;;;;;;;;;;;;24.83;100.00;99566.44;5070176;28;20003;-77
2023/07/05 09:03:51;;;;;;;;;;;;;;;24.91;100.00;99568.00;5066935;28;19923;-77
2023/07/05 09:06:22;;;;;;;;;;;;;;;24.98;100.00;99567.84;5070595;28;19924;-77
2023/07/05 09:08:55;;;;;;;;;;;;;;;25.08;100.00;99570.81;5071369;28;19947;-77
2023/07/05 09:11:28;;;;;;;;;;;;;;;25.14;100.00;99570.69;5070743;28;20390;-76
2023/07/05 09:14:09;;;;;;;;;;;;;;;25.20;100.00;99579.72;5067230;28;19920;-76
2023/07/05 09:16:42;;;;;;;;;;;;;;;25.23;100.00;99581.91;5068252;28;20268;-76
2023/07/05 09:19:07;;;;;;;;;;;;;;;25.17;100.00;99582.88;5070491;28;20016;-78
2023/07/05 09:21:39;;;;;;;;;;;;;;;25.21;100.00;99579.44;5070553;28;19973;-77
2023/07/05 09:24:24;;;;;;;;;;;;;;;25.06;100.00;99570.19;5070689;28;19934;-78
2023/07/05 09:26:56;;;;;;;;;;;;;;;25.10;100.00;99571.38;5070897;28;19920;-76
2023/07/05 09:29:30;;;;;;;;;;;;;;;25.17;100.00;99577.47;5070197;28;19916;-76
2023/07/05 09:31:59;;;;;;;;;;;;;;;25.20;100.00;99582.41;5066819;28;19931;-77
2023/07/05 09:34:31;;;;;;;;;;;;;;;25.18;100.00;99579.13;5066584;28;19965;-77
2023/07/05 09:36:56;;;;;;;;;;;;;;;25.23;100.00;99581.91;5066972;28;19916;-77
2023/07/05 09:39:25;;;;;;;;;;;;;;;25.26;100.00;99581.47;5070686;28;19923;-76
2023/07/05 09:41:53;;;;;;;;;;;;;;;25.31;100.00;99578.88;5070687;28;19982;-77
2023/07/05 09:44:19;;;;;;;;;;;;;;;25.34;100.00;99583.78;5068553;28;20337;-77
2023/07/05 09:46:44;;;;;;;;;;;;;;;25.43;100.00;99576.13;5069268;28;19976;-78
2023/07/05 09:49:12;;;;;;;;;;;;;;;25.46;100.00;99584.56;5070423;28;19931;-77
2023/07/05 09:51:38;;;;;;;;;;;;;;;25.53;100.00;99579.88;5070066;28;19927;-77
2023/07/05 09:54:07;;;;;;;;;;;;;;;25.55;100.00;99574.22;5070389;28;19916;-77
2023/07/05 09:56:54;;;;;;;;;;;;;;;25.56;100.00;99571.31;5070220;28;19926;-78
2023/07/05 09:59:22;;;;;;;;;;;;;;;25.57;100.00;99577.53;5068222;28;20403;-77
2023/07/05 10:01:49;;;;;;;;;;;;;;;25.60;100.00;99569.78;5070569;28;19920;-77
2023/07/05 10:04:15;;;;;;;;;;;;;;;25.68;100.00;99566.69;5070233;28;19920;-77
2023/07/05 10:06:42;;;;;;;;;;;;;;;25.74;100.00;99561.41;5062881;28;20330;-78
2023/07/05 10:09:12;;;;;;;;;;;;;;;25.81;100.00;99562.06;5069637;28;19924;-76
2023/07/05 10:11:42;;;;;;;;;;;;;;;25.83;100.00;99565.34;5065701;28;20325;-76
2023/07/05 10:14:09;;;;;;;;;;;;;;;25.85;100.00;99565.94;5068827;28;19951;-77
2023/07/05 10:16:43;;;;;;;;;;;;;;;25.88;100.00;99560.03;5069233;28;20287;-78
2023/07/05 10:19:29;;;;;;;;;;;;;;;25.92;100.00;99564.69;5069619;28;19920;-77
2023/07/05 10:22:00;;;;;;;;;;;;;;;25.92;100.00;99555.81;5065546;28;20237;-77
2023/07/05 10:24:26;;;;;;;;;;;;;;;25.98;100.00;99562.91;5064672;28;19917;-78
2023/07/05 10:27:00;;;;;;;;;;;;;;;26.00;100.00;99558.91;5069702;28;19991;-79
2023/07/05 10:29:26;;;;;;;;;;;;;;;26.08;100.00;99557.72;5068450;28;19916;-77
2023/07/05 10:31:53;;;;;;;;;;;;;;;26.17;100.00;99560.81;5069751;28;19962;-78
2023/07/05 10:34:21;;;;;;;;;;;;;;;26.22;100.00;99559.03;5069615;28;20305;-77
2023/07/05 10:36:48;;;;;;;;;;;;;;;26.23;100.00;99549.03;5069496;28;19999;-78
2023/07/05 10:39:16;;;;;;;;;;;;;;;26.25;100.00;99539.66;5068346;28;19923;-77
2023/07/05 10:41:42;;;;;;;;;;;;;;;26.23;100.00;99544.47;5065274;28;19926;-77
2023/07/05 10:44:21;;;;;;;;;;;;;;;26.17;100.00;99547.28;5069382;28;19916;-77
2023/07/05 10:46:48;;;;;;;;;;;;;;;26.13;100.00;99549.69;5069365;28;19999;-77
2023/07/05 10:49:15;;;;;;;;;;;;;;;26.20;100.00;99539.53;5069200;28;19924;-76
2023/07/05 10:51:44;;;;;;;;;;;;;;;26.25;100.00;99536.94;5069017;28;19989;-78
2023/07/05 10:54:15;;;;;;;;;;;;;;;26.27;100.00;99523.97;5069178;28;19922;-77
2023/07/05 10:56:42;;;;;;;;;;;;;;;26.29;100.00;99535.38;5068806;28;20354;-78
2023/07/05 10:59:26;;;;;;;;;;;;;;;26.35;100.00;99526.28;5068738;28;20288;-77
2023/07/05 11:02:10;;;;;;;;;;;;;;;26.26;100.00;99524.25;5068817;28;20354;-78
2023/07/05 11:04:38;;;;;;;;;;;;;;;26.24;100.00;99519.06;5065828;28;19920;-77
2023/07/05 11:07:10;;;;;;;;;;;;;;;26.30;100.00;99523.50;5068601;28;20356;-74
2023/07/05 11:09:36;;;;;;;;;;;;;;;26.25;100.00;99526.13;5068117;28;19928;-76
2023/07/05 11:12:05;;;;;;;;;;;;;;;26.19;100.00;99505.44;5069392;28;20521;-75
2023/07/05 11:14:31;;;;;;;;;;;;;;;26.23;100.00;99506.59;5068309;28;20007;-77
2023/07/05 11:16:57;;;;;;;;;;;;;;;26.30;100.00;99501.84;5068782;28;19972;-77
2023/07/05 11:19:26;;;;;;;;;;;;;;;26.38;100.00;99504.16;5056534;28;20278;-78
2023/07/05 11:21:52;;;;;;;;;;;;;;;26.44;100.00;99497.75;5068970;28;19922;-77
2023/07/05 11:24:31;;;;;;;;;;;;;;;26.54;100.00;99493.56;5066469;28;19925;-77
2023/07/05 11:26:57;;;;;;;;;;;;;;;26.64;100.00;99491.81;5065166;28;19917;-77
2023/07/05 11:29:25;;;;;;;;;;;;;;;26.75;100.00;99481.94;5068047;28;19913;-77
2023/07/05 11:31:54;;;;;;;;;;;;;;;26.77;100.00;99475.22;5068714;28;20325;-78
2023/07/05 11:34:22;;;;;;;;;;;;;;;26.79;100.00;99477.69;5068146;28;19912;-78
2023/07/05 11:36:48;;;;;;;;;;;;;;;26.86;100.00;99472.91;5068582;28;19964;-77
2023/07/05 11:39:31;;;;;;;;;;;;;;;26.96;100.00;99472.25;5068496;28;20000;-77
2023/07/05 11:41:58;;;;;;;;;;;;;;;27.09;100.00;99461.88;5064580;28;19924;-77
2023/07/05 11:44:28;;;;;;;;;;;;;;;27.12;100.00;99450.53;5064299;28;19920;-78
2023/07/05 11:46:54;;;;;;;;;;;;;;;27.06;100.00;99454.25;5064778;28;20336;-78
2023/07/05 11:49:20;;;;;;;;;;;;;;;26.99;100.00;99459.03;5067902;28;19955;-78
2023/07/05 11:51:47;;;;;;;;;;;;;;;27.00;100.00;99451.72;5068566;28;20374;-78
2023/07/05 11:54:13;;;;;;;;;;;;;;;26.99;100.00;99440.06;5068606;28;19956;-78
2023/07/05 11:56:40;;;;;;;;;;;;;;;27.02;100.00;99442.28;5067720;28;19916;-78
2023/07/05 11:59:08;;;;;;;;;;;;;;;27.07;100.00;99442.34;5062409;28;20382;-78
2023/07/05 12:01:36;;;;;;;;;;;;;;;27.20;100.00;99444.66;5067265;28;19920;-78
2023/07/05 12:04:05;;;;;;;;;;;;;;;27.25;100.00;99442.00;5062722;28;19919;-77
2023/07/05 12:06:38;;;;;;;;;;;;;;;27.25;100.00;99433.88;5067922;28;19916;-77
2023/07/05 12:09:05;;;;;;;;;;;;;;;27.26;100.00;99429.28;5068542;28;20042;-75
2023/07/05 12:11:35;;;;;;;;;;;;;;;27.33;100.00;99418.25;5071880;28;19923;-77
2023/07/05 12:14:02;;;;;;;;;;;;;;;27.52;100.00;99427.69;5071575;28;20015;-78
2023/07/05 12:16:28;;;;;;;;;;;;;;;27.62;100.00;99419.66;5067726;28;19923;-77
2023/07/05 12:18:53;;;;;;;;;;;;;;;27.74;100.00;99406.75;5068105;28;19916;-78
2023/07/05 12:21:19;;;;;;;;;;;;;;;27.89;100.00;99412.31;5068581;28;20022;-77
2023/07/05 12:23:46;;;;;;;;;;;;;;;28.08;100.00;99410.84;5070627;28;19993;-78
2023/07/05 12:26:22;;;;;;;;;;;;;;;28.23;97.90;99399.28;5071728;28;19917;-77
2023/07/05 12:28:48;;;;;;;;;;;;;;;28.32;98.11;99400.44;5066546;28;19917;-78
2023/07/05 12:31:19;;;;;;;;;;;;;;;28.38;97.69;99401.28;5067641;28;19982;-78
2023/07/05 12:33:50;;;;;;;;;;;;;;;28.35;96.41;99399.09;5071831;28;19924;-77
2023/07/05 12:36:17;;;;;;;;;;;;;;;28.33;97.19;99390.41;5071819;28;20344;-78